Weather History for KISQ - October, 2012

Change the Weather History Date:

Thursday, October 11, 2012

  Actual Average Record
Temperature  
Mean Temperature 40 °F -  
Max Temperature 48 °F 53 °F 71 °F (1949)
Min Temperature 33 °F 38 °F 25 °F (1956)
Degree Days  
Heating Degree Days 24    
Moisture  
Dew Point 33 °F    
Average Humidity 74    
Maximum Humidity 93    
Minimum Humidity 46    
Precipitation  
Precipitation 0.00 in - - ()
Sea Level Pressure  
Sea Level Pressure 29.98 in    
Wind  
Wind Speed 7 mph (West)    
Max Wind Speed 20 mph    
Max Gust Speed 34 mph    
Visibility 9 miles    
Events Rain , Snow    
Averages and records for this station are not official NWS values.
T = Trace of Precipitation, MM = Missing Value Source: NWS Daily Summary

Daily Weather History Graph

Daily Weather History Graph

Search for Another Location

Airport or City:

Trip Planner

Search our weather history database for the weather conditions in past years. The results will help you decide how hot, cold, wet, or windy it might be!

Date:

Astronomy

Oct. 11, 2012 Rise Set
Actual Time 7:56 AM EDT 7:04 PM EDT
Civil Twilight 7:26 AM EDT 7:34 PM EDT
Nautical Twilight 6:52 AM EDT 8:09 PM EDT
Astronomical Twilight 6:17 AM EDT 8:44 PM EDT
Moon 3:21 AM EDT (10/11) 4:51 PM EDT (10/11)
Length of Visible Light 12h 08m
Length of Day
11h 08m
Waning Crescent, 18% of the Moon is Illuminated
Oct 11
Waning Crescent
Oct 15
New
Oct 21
First Quarter
Oct 29
Full
Nov 6
Last Quarter

Hourly Weather History & Observations

Time (EDT) Temp. Windchill Dew Point Humidity Pressure Visibility Wind Dir Wind Speed Gust Speed Precip Events Conditions
12:14 AM 37.4 °F 34.9 °F 24.8 °F 60% 30.03 in 10.0 mi SW 3.5 mph - N/A   Overcast
12:35 AM 37.4 °F - 26.6 °F 65% 30.03 in 10.0 mi Calm Calm - N/A   Overcast
12:54 AM 37.4 °F - 28.4 °F 70% 30.02 in 10.0 mi Calm Calm - N/A   Overcast
1:15 AM 39.2 °F 37.0 °F 28.4 °F 65% 30.02 in 10.0 mi SW 3.5 mph - N/A   Overcast
1:35 AM 39.2 °F 37.0 °F 28.4 °F 65% 30.01 in 10.0 mi SW 3.5 mph - N/A   Overcast
1:54 AM 41.0 °F 39.0 °F 28.4 °F 61% 30.00 in 10.0 mi SW 3.5 mph - N/A   Overcast
2:15 AM 42.8 °F 40.1 °F 28.4 °F 57% 29.99 in 10.0 mi SW 4.6 mph - N/A   Overcast
2:35 AM 42.8 °F 38.6 °F 30.2 °F 61% 29.98 in 10.0 mi SSW 6.9 mph - N/A   Overcast
2:55 AM 42.8 °F 40.1 °F 30.2 °F 61% 29.98 in 10.0 mi SW 4.6 mph - N/A   Overcast
3:15 AM 44.6 °F 40.7 °F 30.2 °F 57% 29.98 in 10.0 mi SW 6.9 mph - N/A   Overcast
3:55 AM 44.6 °F 39.7 °F 30.2 °F 57% 29.98 in 10.0 mi West 9.2 mph - N/A   Overcast
4:15 AM 42.8 °F 38.0 °F 28.4 °F 57% 29.97 in 10.0 mi West 8.1 mph - N/A   Overcast
4:34 AM 42.8 °F 38.0 °F 28.4 °F 57% 29.98 in 10.0 mi WSW 8.1 mph - N/A   Overcast
4:55 AM 41.0 °F 34.3 °F 30.2 °F 65% 29.97 in 10.0 mi WSW 11.5 mph - N/A   Light Drizzle
5:14 AM 39.2 °F 35.0 °F 32.0 °F 75% 29.97 in 10.0 mi West 5.8 mph - N/A Rain Rain
5:35 AM 37.4 °F 31.4 °F 33.8 °F 87% 29.96 in 10.0 mi West 8.1 mph - N/A Rain Light Rain
5:55 AM 37.4 °F 32.8 °F 33.8 °F 87% 29.96 in 10.0 mi WSW 5.8 mph - N/A Rain Light Rain
6:14 AM 37.4 °F 34.9 °F 33.8 °F 87% 29.95 in 7.0 mi WSW 3.5 mph - N/A Rain Light Rain
6:35 AM 37.4 °F 34.9 °F 33.8 °F 87% 29.93 in 5.0 mi WSW 3.5 mph - N/A Rain Light Rain
6:54 AM 37.4 °F - 33.8 °F 87% 29.92 in 5.0 mi Calm Calm - N/A Rain Light Rain
7:15 AM 37.4 °F - 33.8 °F 87% 29.91 in 4.0 mi Calm Calm - N/A Rain Light Rain
7:35 AM 37.4 °F - 33.8 °F 87% 29.89 in 2.5 mi Calm Calm - N/A   Overcast
7:54 AM 41.0 °F 33.9 °F 37.4 °F 87% 29.89 in 7.0 mi SSW 12.7 mph 21.9 mph N/A Rain Light Rain
8:15 AM 42.8 °F 36.2 °F 37.4 °F 81% 29.87 in 10.0 mi SSW 12.7 mph 21.9 mph N/A Rain Rain
8:35 AM 42.8 °F 38.6 °F 37.4 °F 81% 29.86 in 10.0 mi SW 6.9 mph - N/A Rain Light Rain
8:54 AM 42.8 °F 35.8 °F 37.4 °F 81% 29.86 in 10.0 mi SW 13.8 mph 25.3 mph N/A Rain Light Rain
9:15 AM 42.8 °F 35.8 °F 37.4 °F 81% 29.85 in 10.0 mi SW 13.8 mph 17.3 mph N/A Rain Rain
9:34 AM 42.8 °F 38.0 °F 39.2 °F 87% 29.85 in 10.0 mi WSW 8.1 mph 17.3 mph N/A   Light Drizzle
9:55 AM 42.8 °F 40.1 °F 39.2 °F 87% 29.84 in 10.0 mi WSW 4.6 mph - N/A   Overcast
10:15 AM 42.8 °F 39.3 °F 39.2 °F 87% 29.83 in 10.0 mi West 5.8 mph - N/A   Mostly Cloudy
10:35 AM 42.8 °F 39.3 °F 39.2 °F 87% 29.84 in 10.0 mi West 5.8 mph - N/A   Mostly Cloudy
10:54 AM 44.6 °F 38.8 °F 37.4 °F 76% 29.84 in 10.0 mi West 11.5 mph - N/A   Overcast
11:15 AM 42.8 °F 35.8 °F 37.4 °F 81% 29.85 in 10.0 mi West 13.8 mph 21.9 mph N/A   Overcast
11:35 AM 42.8 °F 34.3 °F 37.4 °F 81% 29.86 in 10.0 mi WNW 19.6 mph 24.2 mph N/A   Scattered Clouds
11:54 AM 42.8 °F 36.2 °F 37.4 °F 81% 29.87 in 10.0 mi WNW 12.7 mph 21.9 mph N/A   Scattered Clouds
12:15 PM 42.8 °F 35.8 °F 37.4 °F 81% 29.88 in 10.0 mi WNW 13.8 mph 23.0 mph N/A   Scattered Clouds
12:35 PM 42.8 °F 35.1 °F 37.4 °F 81% 29.88 in 10.0 mi WNW 16.1 mph 23.0 mph N/A   Scattered Clouds
12:55 PM 44.6 °F 38.4 °F 37.4 °F 76% 29.89 in 10.0 mi WNW 12.7 mph 25.3 mph N/A   Scattered Clouds
1:15 PM 44.6 °F 36.9 °F 35.6 °F 71% 29.89 in 10.0 mi NW 18.4 mph 25.3 mph N/A   Mostly Cloudy
1:55 PM 44.6 °F 38.4 °F 35.6 °F 71% 29.90 in 10.0 mi WNW 12.7 mph 18.4 mph N/A   Scattered Clouds
2:15 PM 44.6 °F 36.9 °F 33.8 °F 66% 29.91 in 10.0 mi WNW 18.4 mph 27.6 mph N/A   Scattered Clouds
2:34 PM 44.6 °F 38.4 °F 35.6 °F 71% 29.92 in 10.0 mi NW 12.7 mph 23.0 mph N/A   Drizzle
2:55 PM 44.6 °F 38.1 °F 33.8 °F 66% 29.93 in 10.0 mi WNW 13.8 mph 26.5 mph N/A   Mostly Cloudy
3:15 PM 44.6 °F 37.8 °F 32.0 °F 61% 29.94 in 10.0 mi WNW 15.0 mph 25.3 mph N/A   Mostly Cloudy
3:34 PM 44.6 °F 38.1 °F 33.8 °F 66% 29.95 in 10.0 mi WNW 13.8 mph 21.9 mph N/A   Scattered Clouds
3:55 PM 46.4 °F 40.7 °F 33.8 °F 62% 29.96 in 10.0 mi West 12.7 mph 23.0 mph N/A   Clear
4:14 PM 48.2 °F - 33.8 °F 58% 29.97 in 10.0 mi West 15.0 mph 24.2 mph N/A   Mostly Cloudy
4:35 PM 48.2 °F - 28.4 °F 46% 29.97 in 10.0 mi NW 17.3 mph 29.9 mph N/A   Overcast
4:55 PM 46.4 °F 41.1 °F 33.8 °F 62% 29.99 in 10.0 mi NNW 11.5 mph 20.7 mph N/A   Overcast
5:14 PM 42.8 °F 36.6 °F 30.2 °F 61% 30.00 in 10.0 mi WNW 11.5 mph - N/A   Mostly Cloudy
6:15 PM 44.6 °F 37.4 °F 24.8 °F 46% 30.03 in 10.0 mi WNW 16.1 mph 21.9 mph N/A   Scattered Clouds
6:35 PM 42.8 °F 36.6 °F 26.6 °F 53% 30.03 in 10.0 mi WNW 11.5 mph 19.6 mph N/A   Clear
6:54 PM 42.8 °F 37.5 °F 26.6 °F 53% 30.05 in 10.0 mi West 9.2 mph 17.3 mph N/A   Clear
7:34 PM 39.2 °F 33.6 °F 26.6 °F 61% 30.07 in 10.0 mi WNW 8.1 mph 16.1 mph N/A   Scattered Clouds
7:55 PM 37.4 °F 28.5 °F 32.0 °F 81% 30.11 in 3.0 mi NW 15.0 mph 34.5 mph N/A Snow Light Snow
8:14 PM 35.6 °F 28.0 °F 32.0 °F 87% 30.11 in 5.0 mi West 10.4 mph 16.1 mph N/A Snow Light Snow
8:35 PM 35.6 °F 28.0 °F 32.0 °F 87% 30.11 in 10.0 mi WNW 10.4 mph 16.1 mph N/A   Scattered Clouds
8:55 PM 35.6 °F 28.6 °F 33.8 °F 93% 30.13 in 10.0 mi NW 9.2 mph - N/A Rain Light Rain
9:14 PM 35.6 °F 27.5 °F 33.8 °F 93% 30.14 in 7.0 mi WNW 11.5 mph 18.4 mph N/A Rain Light Rain
9:35 PM 35.6 °F 26.2 °F 32.0 °F 87% 30.15 in 10.0 mi WNW 15.0 mph 20.7 mph N/A Rain Light Rain
9:55 PM 35.6 °F 26.6 °F 32.0 °F 87% 30.16 in 10.0 mi WNW 13.8 mph - N/A Snow Light Snow
10:14 PM 33.8 °F 25.8 °F 30.2 °F 87% 30.16 in 10.0 mi West 10.4 mph - N/A Rain Light Rain
10:54 PM 33.8 °F 27.0 °F 30.2 °F 87% 30.18 in 10.0 mi WNW 8.1 mph - N/A   Mostly Cloudy
11:15 PM 33.8 °F 27.7 °F 30.2 °F 87% 30.18 in 10.0 mi WNW 6.9 mph - N/A   Scattered Clouds
11:35 PM 33.8 °F 27.0 °F 30.2 °F 87% 30.19 in 10.0 mi WNW 8.1 mph - N/A   Clear
11:54 PM 33.8 °F 27.7 °F 30.2 °F 87% 30.20 in 10.0 mi NW 6.9 mph - N/A   Clear